sensor_id;sensor_type;location;lat;lon;timestamp;P1;durP1;ratioP1;P2;durP2;ratioP2
19291;SDS011;9779;51.756;7.450;2023-09-19T00:02:16;6.43;;;1.93;;
19291;SDS011;9779;51.756;7.450;2023-09-19T00:04:42;7.20;;;1.83;;
19291;SDS011;9779;51.756;7.450;2023-09-19T00:07:08;6.00;;;1.80;;
19291;SDS011;9779;51.756;7.450;2023-09-19T00:09:34;5.70;;;2.07;;
19291;SDS011;9779;51.756;7.450;2023-09-19T00:12:05;6.30;;;2.50;;
19291;SDS011;9779;51.756;7.450;2023-09-19T00:14:32;9.43;;;2.23;;
19291;SDS011;9779;51.756;7.450;2023-09-19T00:17:01;9.33;;;2.07;;
19291;SDS011;9779;51.756;7.450;2023-09-19T00:19:31;7.30;;;2.40;;
19291;SDS011;9779;51.756;7.450;2023-09-19T00:21:57;8.20;;;2.00;;
19291;SDS011;9779;51.756;7.450;2023-09-19T00:24:23;4.27;;;2.10;;
19291;SDS011;9779;51.756;7.450;2023-09-19T00:26:48;7.20;;;1.90;;
19291;SDS011;9779;51.756;7.450;2023-09-19T00:29:14;9.57;;;2.30;;
19291;SDS011;9779;51.756;7.450;2023-09-19T00:31:43;7.10;;;2.30;;
19291;SDS011;9779;51.756;7.450;2023-09-19T00:34:09;6.03;;;2.07;;
19291;SDS011;9779;51.756;7.450;2023-09-19T00:36:35;4.63;;;1.70;;
19291;SDS011;9779;51.756;7.450;2023-09-19T00:39:03;4.50;;;1.93;;
19291;SDS011;9779;51.756;7.450;2023-09-19T00:41:30;16.50;;;2.50;;
19291;SDS011;9779;51.756;7.450;2023-09-19T00:44:01;3.13;;;1.77;;
19291;SDS011;9779;51.756;7.450;2023-09-19T00:46:27;10.73;;;2.40;;
19291;SDS011;9779;51.756;7.450;2023-09-19T00:48:53;8.63;;;2.60;;
19291;SDS011;9779;51.756;7.450;2023-09-19T00:51:19;9.33;;;2.10;;
19291;SDS011;9779;51.756;7.450;2023-09-19T00:53:47;6.63;;;1.90;;
19291;SDS011;9779;51.756;7.450;2023-09-19T00:56:13;4.43;;;2.20;;
19291;SDS011;9779;51.756;7.450;2023-09-19T00:58:40;9.23;;;2.60;;
19291;SDS011;9779;51.756;7.450;2023-09-19T01:01:05;4.17;;;2.10;;
19291;SDS011;9779;51.756;7.450;2023-09-19T01:03:36;6.10;;;2.53;;
19291;SDS011;9779;51.756;7.450;2023-09-19T01:06:02;6.90;;;2.10;;
19291;SDS011;9779;51.756;7.450;2023-09-19T01:08:27;8.37;;;2.30;;
19291;SDS011;9779;51.756;7.450;2023-09-19T01:11:06;6.33;;;2.63;;
19291;SDS011;9779;51.756;7.450;2023-09-19T01:16:08;8.00;;;2.40;;
19291;SDS011;9779;51.756;7.450;2023-09-19T01:21:28;9.47;;;2.23;;
19291;SDS011;9779;51.756;7.450;2023-09-19T01:29:49;6.67;;;2.17;;
19291;SDS011;9779;51.756;7.450;2023-09-19T01:32:16;7.87;;;2.13;;
19291;SDS011;9779;51.756;7.450;2023-09-19T01:34:47;15.20;;;2.23;;
19291;SDS011;9779;51.756;7.450;2023-09-19T01:37:16;6.90;;;2.47;;
19291;SDS011;9779;51.756;7.450;2023-09-19T01:39:48;10.17;;;2.10;;
19291;SDS011;9779;51.756;7.450;2023-09-19T01:42:18;5.33;;;2.50;;
19291;SDS011;9779;51.756;7.450;2023-09-19T01:44:57;8.60;;;2.57;;
19291;SDS011;9779;51.756;7.450;2023-09-19T01:47:33;8.13;;;2.47;;
19291;SDS011;9779;51.756;7.450;2023-09-19T01:53:02;10.27;;;2.33;;
19291;SDS011;9779;51.756;7.450;2023-09-19T01:55:47;8.77;;;2.27;;
19291;SDS011;9779;51.756;7.450;2023-09-19T01:58:17;7.13;;;2.70;;
19291;SDS011;9779;51.756;7.450;2023-09-19T02:00:50;12.37;;;3.17;;
19291;SDS011;9779;51.756;7.450;2023-09-19T02:03:16;8.43;;;3.13;;
19291;SDS011;9779;51.756;7.450;2023-09-19T02:05:48;7.63;;;2.00;;
19291;SDS011;9779;51.756;7.450;2023-09-19T02:08:16;14.17;;;2.80;;
19291;SDS011;9779;51.756;7.450;2023-09-19T02:10:43;7.83;;;2.70;;
19291;SDS011;9779;51.756;7.450;2023-09-19T02:13:13;8.47;;;2.20;;
19291;SDS011;9779;51.756;7.450;2023-09-19T02:15:42;9.97;;;2.93;;
19291;SDS011;9779;51.756;7.450;2023-09-19T02:18:09;9.17;;;2.43;;
19291;SDS011;9779;51.756;7.450;2023-09-19T02:20:36;10.70;;;2.70;;
19291;SDS011;9779;51.756;7.450;2023-09-19T02:23:02;11.87;;;3.03;;
19291;SDS011;9779;51.756;7.450;2023-09-19T02:25:28;5.90;;;2.23;;
19291;SDS011;9779;51.756;7.450;2023-09-19T02:27:56;4.60;;;1.90;;
19291;SDS011;9779;51.756;7.450;2023-09-19T02:30:23;8.73;;;2.60;;
19291;SDS011;9779;51.756;7.450;2023-09-19T02:32:52;9.70;;;2.20;;
19291;SDS011;9779;51.756;7.450;2023-09-19T02:35:17;11.80;;;3.50;;
19291;SDS011;9779;51.756;7.450;2023-09-19T02:37:46;8.27;;;2.70;;
19291;SDS011;9779;51.756;7.450;2023-09-19T02:40:12;13.17;;;2.70;;
19291;SDS011;9779;51.756;7.450;2023-09-19T02:42:45;6.93;;;2.40;;
19291;SDS011;9779;51.756;7.450;2023-09-19T02:45:18;9.40;;;2.33;;
19291;SDS011;9779;51.756;7.450;2023-09-19T02:47:44;11.50;;;3.10;;
19291;SDS011;9779;51.756;7.450;2023-09-19T02:50:14;11.33;;;3.00;;
19291;SDS011;9779;51.756;7.450;2023-09-19T02:52:43;7.27;;;2.53;;
19291;SDS011;9779;51.756;7.450;2023-09-19T02:55:11;9.50;;;2.97;;
19291;SDS011;9779;51.756;7.450;2023-09-19T02:57:39;8.27;;;2.30;;
19291;SDS011;9779;51.756;7.450;2023-09-19T03:00:08;10.60;;;2.47;;
19291;SDS011;9779;51.756;7.450;2023-09-19T03:02:37;7.60;;;2.57;;
19291;SDS011;9779;51.756;7.450;2023-09-19T03:05:05;10.83;;;2.40;;
19291;SDS011;9779;51.756;7.450;2023-09-19T03:07:31;7.57;;;2.90;;
19291;SDS011;9779;51.756;7.450;2023-09-19T03:09:57;10.53;;;3.03;;
19291;SDS011;9779;51.756;7.450;2023-09-19T03:12:22;7.40;;;2.53;;
19291;SDS011;9779;51.756;7.450;2023-09-19T03:14:48;5.83;;;2.50;;
19291;SDS011;9779;51.756;7.450;2023-09-19T03:17:15;13.27;;;2.53;;
19291;SDS011;9779;51.756;7.450;2023-09-19T03:19:41;10.30;;;2.83;;
19291;SDS011;9779;51.756;7.450;2023-09-19T03:22:06;10.77;;;2.63;;
19291;SDS011;9779;51.756;7.450;2023-09-19T03:24:32;10.80;;;3.07;;
19291;SDS011;9779;51.756;7.450;2023-09-19T03:26:58;5.77;;;2.07;;
19291;SDS011;9779;51.756;7.450;2023-09-19T03:29:24;17.83;;;2.70;;
19291;SDS011;9779;51.756;7.450;2023-09-19T03:31:50;9.07;;;2.57;;
19291;SDS011;9779;51.756;7.450;2023-09-19T03:34:16;6.90;;;2.27;;
19291;SDS011;9779;51.756;7.450;2023-09-19T03:36:42;11.43;;;2.40;;
19291;SDS011;9779;51.756;7.450;2023-09-19T03:39:07;5.83;;;2.60;;
19291;SDS011;9779;51.756;7.450;2023-09-19T03:41:33;11.97;;;2.90;;
19291;SDS011;9779;51.756;7.450;2023-09-19T03:44:01;12.40;;;2.03;;
19291;SDS011;9779;51.756;7.450;2023-09-19T03:46:27;7.20;;;2.43;;
19291;SDS011;9779;51.756;7.450;2023-09-19T03:48:53;8.93;;;2.57;;
19291;SDS011;9779;51.756;7.450;2023-09-19T03:51:19;6.33;;;2.50;;
19291;SDS011;9779;51.756;7.450;2023-09-19T03:53:45;9.83;;;2.77;;
19291;SDS011;9779;51.756;7.450;2023-09-19T03:56:11;11.50;;;2.43;;
19291;SDS011;9779;51.756;7.450;2023-09-19T03:58:37;9.80;;;2.80;;
19291;SDS011;9779;51.756;7.450;2023-09-19T04:01:04;10.27;;;2.40;;
19291;SDS011;9779;51.756;7.450;2023-09-19T04:03:31;8.07;;;2.53;;
19291;SDS011;9779;51.756;7.450;2023-09-19T04:06:10;7.47;;;2.63;;
19291;SDS011;9779;51.756;7.450;2023-09-19T04:08:37;7.97;;;2.50;;
19291;SDS011;9779;51.756;7.450;2023-09-19T04:11:02;9.67;;;2.53;;
19291;SDS011;9779;51.756;7.450;2023-09-19T04:13:28;7.50;;;2.77;;
19291;SDS011;9779;51.756;7.450;2023-09-19T04:15:53;6.83;;;2.20;;
19291;SDS011;9779;51.756;7.450;2023-09-19T04:18:19;8.90;;;2.87;;
19291;SDS011;9779;51.756;7.450;2023-09-19T04:20:49;14.23;;;2.60;;
19291;SDS011;9779;51.756;7.450;2023-09-19T04:23:15;15.50;;;2.43;;
19291;SDS011;9779;51.756;7.450;2023-09-19T04:25:41;10.70;;;2.60;;
19291;SDS011;9779;51.756;7.450;2023-09-19T04:28:08;11.10;;;3.10;;
19291;SDS011;9779;51.756;7.450;2023-09-19T04:30:36;7.07;;;2.27;;
19291;SDS011;9779;51.756;7.450;2023-09-19T04:33:02;5.03;;;2.13;;
19291;SDS011;9779;51.756;7.450;2023-09-19T04:35:27;12.53;;;3.50;;
19291;SDS011;9779;51.756;7.450;2023-09-19T04:37:56;5.83;;;2.80;;
19291;SDS011;9779;51.756;7.450;2023-09-19T04:40:22;13.87;;;3.07;;
19291;SDS011;9779;51.756;7.450;2023-09-19T04:42:53;9.70;;;2.97;;
19291;SDS011;9779;51.756;7.450;2023-09-19T04:45:21;10.97;;;2.53;;
19291;SDS011;9779;51.756;7.450;2023-09-19T04:47:50;7.93;;;2.20;;
19291;SDS011;9779;51.756;7.450;2023-09-19T04:50:15;8.83;;;2.83;;
19291;SDS011;9779;51.756;7.450;2023-09-19T04:52:43;6.70;;;2.33;;
19291;SDS011;9779;51.756;7.450;2023-09-19T04:55:15;10.13;;;2.90;;
19291;SDS011;9779;51.756;7.450;2023-09-19T04:57:45;7.47;;;2.90;;
19291;SDS011;9779;51.756;7.450;2023-09-19T05:00:13;5.67;;;2.30;;
19291;SDS011;9779;51.756;7.450;2023-09-19T05:02:40;11.53;;;2.57;;
19291;SDS011;9779;51.756;7.450;2023-09-19T05:05:07;13.10;;;2.73;;
19291;SDS011;9779;51.756;7.450;2023-09-19T05:07:33;11.77;;;2.60;;
19291;SDS011;9779;51.756;7.450;2023-09-19T05:09:59;14.30;;;2.63;;
19291;SDS011;9779;51.756;7.450;2023-09-19T05:12:28;6.43;;;2.63;;
19291;SDS011;9779;51.756;7.450;2023-09-19T05:14:54;17.60;;;2.67;;
19291;SDS011;9779;51.756;7.450;2023-09-19T05:17:20;7.53;;;2.60;;
19291;SDS011;9779;51.756;7.450;2023-09-19T05:19:46;7.23;;;2.17;;
19291;SDS011;9779;51.756;7.450;2023-09-19T05:22:11;10.63;;;2.20;;
19291;SDS011;9779;51.756;7.450;2023-09-19T05:24:37;11.27;;;3.00;;
19291;SDS011;9779;51.756;7.450;2023-09-19T05:27:03;9.53;;;1.93;;
19291;SDS011;9779;51.756;7.450;2023-09-19T05:29:32;4.33;;;1.93;;
19291;SDS011;9779;51.756;7.450;2023-09-19T05:31:58;9.53;;;1.87;;
19291;SDS011;9779;51.756;7.450;2023-09-19T05:34:24;11.80;;;2.70;;
19291;SDS011;9779;51.756;7.450;2023-09-19T05:36:53;7.87;;;2.33;;
19291;SDS011;9779;51.756;7.450;2023-09-19T05:39:19;6.07;;;1.77;;
19291;SDS011;9779;51.756;7.450;2023-09-19T05:41:45;6.97;;;2.60;;
19291;SDS011;9779;51.756;7.450;2023-09-19T05:44:12;9.47;;;2.67;;
19291;SDS011;9779;51.756;7.450;2023-09-19T05:46:39;8.20;;;2.50;;
19291;SDS011;9779;51.756;7.450;2023-09-19T05:49:04;8.93;;;2.37;;
19291;SDS011;9779;51.756;7.450;2023-09-19T05:51:30;9.57;;;2.40;;
19291;SDS011;9779;51.756;7.450;2023-09-19T05:54:11;9.10;;;2.30;;
19291;SDS011;9779;51.756;7.450;2023-09-19T05:56:37;4.53;;;2.30;;
19291;SDS011;9779;51.756;7.450;2023-09-19T06:02:42;8.20;;;2.73;;
19291;SDS011;9779;51.756;7.450;2023-09-19T06:05:09;9.33;;;3.13;;
19291;SDS011;9779;51.756;7.450;2023-09-19T06:07:36;10.87;;;2.37;;
19291;SDS011;9779;51.756;7.450;2023-09-19T06:10:05;13.83;;;2.63;;
19291;SDS011;9779;51.756;7.450;2023-09-19T06:18:11;13.27;;;2.87;;
19291;SDS011;9779;51.756;7.450;2023-09-19T06:20:44;12.97;;;3.07;;
19291;SDS011;9779;51.756;7.450;2023-09-19T06:23:11;5.43;;;2.80;;
19291;SDS011;9779;51.756;7.450;2023-09-19T06:25:37;9.00;;;3.20;;
19291;SDS011;9779;51.756;7.450;2023-09-19T06:28:03;6.37;;;2.50;;
19291;SDS011;9779;51.756;7.450;2023-09-19T06:30:30;11.37;;;2.83;;
19291;SDS011;9779;51.756;7.450;2023-09-19T06:32:56;8.10;;;2.93;;
19291;SDS011;9779;51.756;7.450;2023-09-19T06:35:23;8.77;;;2.57;;
19291;SDS011;9779;51.756;7.450;2023-09-19T06:37:48;4.83;;;2.60;;
19291;SDS011;9779;51.756;7.450;2023-09-19T06:40:15;8.00;;;3.07;;
19291;SDS011;9779;51.756;7.450;2023-09-19T06:42:42;12.30;;;3.53;;
19291;SDS011;9779;51.756;7.450;2023-09-19T06:45:12;16.47;;;2.93;;
19291;SDS011;9779;51.756;7.450;2023-09-19T06:47:38;12.07;;;2.30;;
19291;SDS011;9779;51.756;7.450;2023-09-19T06:50:04;6.13;;;2.57;;
19291;SDS011;9779;51.756;7.450;2023-09-19T06:52:31;10.07;;;2.40;;
19291;SDS011;9779;51.756;7.450;2023-09-19T06:54:58;5.37;;;2.33;;
19291;SDS011;9779;51.756;7.450;2023-09-19T06:57:23;7.80;;;2.60;;
19291;SDS011;9779;51.756;7.450;2023-09-19T06:59:49;12.00;;;2.67;;
19291;SDS011;9779;51.756;7.450;2023-09-19T07:02:15;6.80;;;2.37;;
19291;SDS011;9779;51.756;7.450;2023-09-19T07:04:40;10.07;;;2.43;;
19291;SDS011;9779;51.756;7.450;2023-09-19T07:07:06;14.70;;;2.70;;
19291;SDS011;9779;51.756;7.450;2023-09-19T07:09:34;7.53;;;2.60;;
19291;SDS011;9779;51.756;7.450;2023-09-19T07:11:59;9.63;;;2.70;;
19291;SDS011;9779;51.756;7.450;2023-09-19T07:14:25;11.20;;;2.63;;
19291;SDS011;9779;51.756;7.450;2023-09-19T07:16:51;9.63;;;2.70;;
19291;SDS011;9779;51.756;7.450;2023-09-19T07:19:17;10.00;;;2.20;;
19291;SDS011;9779;51.756;7.450;2023-09-19T07:21:42;8.73;;;2.27;;
19291;SDS011;9779;51.756;7.450;2023-09-19T07:24:08;6.27;;;2.37;;
19291;SDS011;9779;51.756;7.450;2023-09-19T07:26:33;6.90;;;2.53;;
19291;SDS011;9779;51.756;7.450;2023-09-19T07:28:59;9.83;;;2.67;;
19291;SDS011;9779;51.756;7.450;2023-09-19T07:31:27;7.60;;;2.63;;
19291;SDS011;9779;51.756;7.450;2023-09-19T07:33:53;8.80;;;2.50;;
19291;SDS011;9779;51.756;7.450;2023-09-19T07:36:19;6.07;;;2.57;;
19291;SDS011;9779;51.756;7.450;2023-09-19T07:38:45;6.47;;;2.50;;
19291;SDS011;9779;51.756;7.450;2023-09-19T07:41:10;10.90;;;2.67;;
19291;SDS011;9779;51.756;7.450;2023-09-19T07:43:36;13.80;;;2.77;;
19291;SDS011;9779;51.756;7.450;2023-09-19T07:46:06;10.17;;;2.90;;
19291;SDS011;9779;51.756;7.450;2023-09-19T07:48:34;12.10;;;2.37;;
19291;SDS011;9779;51.756;7.450;2023-09-19T07:51:05;12.00;;;2.90;;
19291;SDS011;9779;51.756;7.450;2023-09-19T07:53:32;10.57;;;2.67;;
19291;SDS011;9779;51.756;7.450;2023-09-19T07:56:04;12.13;;;3.23;;
19291;SDS011;9779;51.756;7.450;2023-09-19T07:58:31;10.23;;;2.70;;
19291;SDS011;9779;51.756;7.450;2023-09-19T08:01:08;9.47;;;2.70;;
19291;SDS011;9779;51.756;7.450;2023-09-19T08:03:35;10.93;;;2.93;;
19291;SDS011;9779;51.756;7.450;2023-09-19T08:06:05;12.27;;;3.17;;
19291;SDS011;9779;51.756;7.450;2023-09-19T08:08:31;14.47;;;3.03;;
19291;SDS011;9779;51.756;7.450;2023-09-19T08:10:59;10.90;;;2.57;;
19291;SDS011;9779;51.756;7.450;2023-09-19T08:13:25;8.00;;;2.43;;
19291;SDS011;9779;51.756;7.450;2023-09-19T08:15:51;13.63;;;2.90;;
19291;SDS011;9779;51.756;7.450;2023-09-19T08:18:22;13.17;;;2.83;;
19291;SDS011;9779;51.756;7.450;2023-09-19T08:20:51;10.97;;;3.10;;
19291;SDS011;9779;51.756;7.450;2023-09-19T08:23:17;12.00;;;2.77;;
19291;SDS011;9779;51.756;7.450;2023-09-19T08:25:47;6.03;;;2.53;;
19291;SDS011;9779;51.756;7.450;2023-09-19T08:28:12;10.33;;;3.13;;
19291;SDS011;9779;51.756;7.450;2023-09-19T08:30:43;10.90;;;2.67;;
19291;SDS011;9779;51.756;7.450;2023-09-19T08:33:13;11.57;;;2.73;;
19291;SDS011;9779;51.756;7.450;2023-09-19T08:35:40;5.17;;;2.10;;
19291;SDS011;9779;51.756;7.450;2023-09-19T08:38:08;9.87;;;2.50;;
19291;SDS011;9779;51.756;7.450;2023-09-19T08:40:38;19.80;;;3.07;;
19291;SDS011;9779;51.756;7.450;2023-09-19T08:43:06;6.57;;;2.73;;
19291;SDS011;9779;51.756;7.450;2023-09-19T08:45:32;13.70;;;2.97;;
19291;SDS011;9779;51.756;7.450;2023-09-19T08:51:17;13.90;;;2.67;;
19291;SDS011;9779;51.756;7.450;2023-09-19T08:56:29;10.37;;;2.47;;
19291;SDS011;9779;51.756;7.450;2023-09-19T08:58:59;12.17;;;2.90;;
19291;SDS011;9779;51.756;7.450;2023-09-19T09:01:52;17.03;;;3.13;;
19291;SDS011;9779;51.756;7.450;2023-09-19T09:04:19;11.67;;;2.60;;
19291;SDS011;9779;51.756;7.450;2023-09-19T09:06:45;12.20;;;3.27;;
19291;SDS011;9779;51.756;7.450;2023-09-19T09:09:18;16.30;;;3.40;;
19291;SDS011;9779;51.756;7.450;2023-09-19T09:11:45;11.07;;;2.83;;
19291;SDS011;9779;51.756;7.450;2023-09-19T09:14:21;8.33;;;2.53;;
19291;SDS011;9779;51.756;7.450;2023-09-19T09:16:55;14.53;;;2.83;;
19291;SDS011;9779;51.756;7.450;2023-09-19T09:19:26;12.77;;;3.43;;
19291;SDS011;9779;51.756;7.450;2023-09-19T09:21:52;10.57;;;2.73;;
19291;SDS011;9779;51.756;7.450;2023-09-19T09:27:03;11.80;;;2.00;;
19291;SDS011;9779;51.756;7.450;2023-09-19T09:29:44;9.43;;;2.87;;
19291;SDS011;9779;51.756;7.450;2023-09-19T09:32:27;13.10;;;2.63;;
19291;SDS011;9779;51.756;7.450;2023-09-19T09:35:02;10.17;;;2.50;;
19291;SDS011;9779;51.756;7.450;2023-09-19T09:37:40;7.50;;;2.13;;
19291;SDS011;9779;51.756;7.450;2023-09-19T09:40:08;9.93;;;3.27;;
19291;SDS011;9779;51.756;7.450;2023-09-19T09:42:40;13.00;;;2.87;;
19291;SDS011;9779;51.756;7.450;2023-09-19T09:47:56;15.47;;;3.10;;
19291;SDS011;9779;51.756;7.450;2023-09-19T09:53:05;7.07;;;2.00;;
19291;SDS011;9779;51.756;7.450;2023-09-19T09:58:52;11.90;;;2.63;;
19291;SDS011;9779;51.756;7.450;2023-09-19T10:01:20;10.80;;;2.80;;
19291;SDS011;9779;51.756;7.450;2023-09-19T10:04:26;11.23;;;2.50;;
19291;SDS011;9779;51.756;7.450;2023-09-19T10:07:04;11.20;;;2.70;;
19291;SDS011;9779;51.756;7.450;2023-09-19T10:09:45;8.23;;;2.80;;
19291;SDS011;9779;51.756;7.450;2023-09-19T10:12:17;10.03;;;2.60;;
19291;SDS011;9779;51.756;7.450;2023-09-19T10:14:44;10.07;;;2.60;;
19291;SDS011;9779;51.756;7.450;2023-09-19T10:17:15;16.80;;;3.03;;
19291;SDS011;9779;51.756;7.450;2023-09-19T10:22:26;5.70;;;1.97;;
19291;SDS011;9779;51.756;7.450;2023-09-19T10:24:56;10.57;;;3.23;;
19291;SDS011;9779;51.756;7.450;2023-09-19T10:27:28;6.97;;;2.47;;
19291;SDS011;9779;51.756;7.450;2023-09-19T10:30:04;9.63;;;2.50;;
19291;SDS011;9779;51.756;7.450;2023-09-19T10:32:32;13.27;;;2.87;;
19291;SDS011;9779;51.756;7.450;2023-09-19T10:35:04;10.40;;;2.70;;
19291;SDS011;9779;51.756;7.450;2023-09-19T10:37:32;11.17;;;3.03;;
19291;SDS011;9779;51.756;7.450;2023-09-19T10:40:05;10.80;;;2.80;;
19291;SDS011;9779;51.756;7.450;2023-09-19T10:42:39;4.93;;;2.10;;
19291;SDS011;9779;51.756;7.450;2023-09-19T10:45:07;10.43;;;2.03;;
19291;SDS011;9779;51.756;7.450;2023-09-19T10:47:38;7.73;;;2.57;;
19291;SDS011;9779;51.756;7.450;2023-09-19T10:50:05;7.73;;;2.60;;
19291;SDS011;9779;51.756;7.450;2023-09-19T10:52:40;9.83;;;2.80;;
19291;SDS011;9779;51.756;7.450;2023-09-19T10:55:07;9.90;;;2.37;;
19291;SDS011;9779;51.756;7.450;2023-09-19T10:57:36;10.50;;;2.57;;
19291;SDS011;9779;51.756;7.450;2023-09-19T11:00:02;7.30;;;2.63;;
19291;SDS011;9779;51.756;7.450;2023-09-19T11:05:40;3.70;;;1.87;;
19291;SDS011;9779;51.756;7.450;2023-09-19T11:08:09;6.67;;;2.17;;
19291;SDS011;9779;51.756;7.450;2023-09-19T11:10:46;6.17;;;1.90;;
19291;SDS011;9779;51.756;7.450;2023-09-19T11:13:28;6.03;;;2.13;;
19291;SDS011;9779;51.756;7.450;2023-09-19T11:27:12;11.00;;;2.10;;
19291;SDS011;9779;51.756;7.450;2023-09-19T11:29:39;8.80;;;2.33;;
19291;SDS011;9779;51.756;7.450;2023-09-19T11:32:05;5.03;;;2.17;;
19291;SDS011;9779;51.756;7.450;2023-09-19T11:34:40;7.17;;;2.63;;
19291;SDS011;9779;51.756;7.450;2023-09-19T11:42:44;8.23;;;2.63;;
19291;SDS011;9779;51.756;7.450;2023-09-19T11:48:11;5.17;;;2.20;;
19291;SDS011;9779;51.756;7.450;2023-09-19T11:50:41;4.63;;;2.27;;
19291;SDS011;9779;51.756;7.450;2023-09-19T11:53:13;7.73;;;2.17;;
19291;SDS011;9779;51.756;7.450;2023-09-19T11:55:41;12.37;;;2.43;;
19291;SDS011;9779;51.756;7.450;2023-09-19T11:58:11;8.60;;;2.20;;
19291;SDS011;9779;51.756;7.450;2023-09-19T12:00:39;8.53;;;2.07;;
19291;SDS011;9779;51.756;7.450;2023-09-19T12:03:09;8.53;;;1.90;;
19291;SDS011;9779;51.756;7.450;2023-09-19T12:05:43;5.97;;;1.70;;
19291;SDS011;9779;51.756;7.450;2023-09-19T12:08:09;5.70;;;1.83;;
19291;SDS011;9779;51.756;7.450;2023-09-19T12:10:50;2.90;;;1.63;;
19291;SDS011;9779;51.756;7.450;2023-09-19T12:13:19;6.13;;;1.63;;
19291;SDS011;9779;51.756;7.450;2023-09-19T12:15:46;9.57;;;2.00;;
19291;SDS011;9779;51.756;7.450;2023-09-19T12:18:29;4.13;;;2.10;;
19291;SDS011;9779;51.756;7.450;2023-09-19T12:20:55;7.13;;;1.60;;
19291;SDS011;9779;51.756;7.450;2023-09-19T12:23:22;9.57;;;2.43;;
19291;SDS011;9779;51.756;7.450;2023-09-19T12:25:48;4.10;;;1.80;;
19291;SDS011;9779;51.756;7.450;2023-09-19T12:28:18;4.13;;;2.00;;
19291;SDS011;9779;51.756;7.450;2023-09-19T12:30:47;7.10;;;2.30;;
19291;SDS011;9779;51.756;7.450;2023-09-19T12:33:16;3.93;;;1.63;;
19291;SDS011;9779;51.756;7.450;2023-09-19T12:35:46;6.37;;;1.70;;
19291;SDS011;9779;51.756;7.450;2023-09-19T12:38:26;2.63;;;1.40;;
19291;SDS011;9779;51.756;7.450;2023-09-19T12:41:03;5.70;;;1.60;;
19291;SDS011;9779;51.756;7.450;2023-09-19T12:43:32;7.27;;;1.70;;
19291;SDS011;9779;51.756;7.450;2023-09-19T12:46:05;7.63;;;1.95;;
19291;SDS011;9779;51.756;7.450;2023-09-19T12:48:30;4.33;;;1.90;;
19291;SDS011;9779;51.756;7.450;2023-09-19T12:51:03;8.37;;;1.87;;
19291;SDS011;9779;51.756;7.450;2023-09-19T12:53:34;7.57;;;1.30;;
19291;SDS011;9779;51.756;7.450;2023-09-19T12:56:10;4.70;;;1.80;;
19291;SDS011;9779;51.756;7.450;2023-09-19T13:01:19;5.30;;;2.00;;
19291;SDS011;9779;51.756;7.450;2023-09-19T13:03:45;3.72;;;1.60;;
19291;SDS011;9779;51.756;7.450;2023-09-19T13:06:34;4.40;;;1.87;;
19291;SDS011;9779;51.756;7.450;2023-09-19T13:09:08;6.47;;;2.07;;
19291;SDS011;9779;51.756;7.450;2023-09-19T13:11:41;5.83;;;1.40;;
19291;SDS011;9779;51.756;7.450;2023-09-19T13:14:22;2.90;;;1.57;;
19291;SDS011;9779;51.756;7.450;2023-09-19T13:17:06;5.60;;;1.50;;
19291;SDS011;9779;51.756;7.450;2023-09-19T13:19:45;4.70;;;1.73;;
19291;SDS011;9779;51.756;7.450;2023-09-19T13:25:28;8.03;;;1.60;;
19291;SDS011;9779;51.756;7.450;2023-09-19T13:27:55;4.67;;;1.50;;
19291;SDS011;9779;51.756;7.450;2023-09-19T13:30:31;4.60;;;1.40;;
19291;SDS011;9779;51.756;7.450;2023-09-19T13:33:06;4.60;;;1.83;;
19291;SDS011;9779;51.756;7.450;2023-09-19T13:35:34;6.10;;;1.23;;
19291;SDS011;9779;51.756;7.450;2023-09-19T13:38:04;2.25;;;1.40;;
19291;SDS011;9779;51.756;7.450;2023-09-19T13:40:31;7.10;;;2.13;;
19291;SDS011;9779;51.756;7.450;2023-09-19T13:43:05;4.53;;;1.40;;
19291;SDS011;9779;51.756;7.450;2023-09-19T13:45:31;4.18;;;1.80;;
19291;SDS011;9779;51.756;7.450;2023-09-19T13:47:57;3.92;;;1.67;;
19291;SDS011;9779;51.756;7.450;2023-09-19T13:50:24;3.63;;;1.65;;
19291;SDS011;9779;51.756;7.450;2023-09-19T13:52:54;4.65;;;1.58;;
19291;SDS011;9779;51.756;7.450;2023-09-19T13:55:20;4.68;;;1.42;;
19291;SDS011;9779;51.756;7.450;2023-09-19T13:57:46;10.75;;;1.27;;
19291;SDS011;9779;51.756;7.450;2023-09-19T14:00:21;4.82;;;1.48;;
19291;SDS011;9779;51.756;7.450;2023-09-19T14:02:47;5.68;;;1.60;;
19291;SDS011;9779;51.756;7.450;2023-09-19T14:05:19;9.15;;;1.30;;
19291;SDS011;9779;51.756;7.450;2023-09-19T14:07:45;7.05;;;1.00;;
19291;SDS011;9779;51.756;7.450;2023-09-19T14:10:11;2.03;;;1.08;;
19291;SDS011;9779;51.756;7.450;2023-09-19T14:12:40;13.93;;;1.42;;
19291;SDS011;9779;51.756;7.450;2023-09-19T14:15:06;3.05;;;1.45;;
19291;SDS011;9779;51.756;7.450;2023-09-19T14:17:33;4.07;;;1.25;;
19291;SDS011;9779;51.756;7.450;2023-09-19T14:19:59;11.57;;;1.63;;
19291;SDS011;9779;51.756;7.450;2023-09-19T14:22:24;3.97;;;1.00;;
19291;SDS011;9779;51.756;7.450;2023-09-19T14:24:50;1.98;;;0.90;;
19291;SDS011;9779;51.756;7.450;2023-09-19T14:27:17;3.30;;;1.50;;
19291;SDS011;9779;51.756;7.450;2023-09-19T14:29:43;2.58;;;1.05;;
19291;SDS011;9779;51.756;7.450;2023-09-19T14:32:09;7.20;;;1.60;;
19291;SDS011;9779;51.756;7.450;2023-09-19T14:34:38;4.95;;;1.85;;
19291;SDS011;9779;51.756;7.450;2023-09-19T14:37:07;2.83;;;1.00;;
19291;SDS011;9779;51.756;7.450;2023-09-19T14:39:33;2.33;;;1.00;;
19291;SDS011;9779;51.756;7.450;2023-09-19T14:41:59;10.00;;;1.20;;
19291;SDS011;9779;51.756;7.450;2023-09-19T14:47:00;3.22;;;1.00;;
19291;SDS011;9779;51.756;7.450;2023-09-19T14:49:27;4.30;;;1.43;;
19291;SDS011;9779;51.756;7.450;2023-09-19T14:51:58;1.58;;;1.00;;
19291;SDS011;9779;51.756;7.450;2023-09-19T14:54:23;10.00;;;1.47;;
19291;SDS011;9779;51.756;7.450;2023-09-19T14:56:52;3.97;;;1.20;;
19291;SDS011;9779;51.756;7.450;2023-09-19T14:59:29;3.33;;;1.00;;
19291;SDS011;9779;51.756;7.450;2023-09-19T15:01:56;1.80;;;0.93;;
19291;SDS011;9779;51.756;7.450;2023-09-19T15:04:23;1.70;;;0.80;;
19291;SDS011;9779;51.756;7.450;2023-09-19T15:06:52;6.20;;;0.87;;
19291;SDS011;9779;51.756;7.450;2023-09-19T15:09:19;10.70;;;0.93;;
19291;SDS011;9779;51.756;7.450;2023-09-19T15:11:52;3.43;;;0.80;;
19291;SDS011;9779;51.756;7.450;2023-09-19T15:14:18;3.50;;;1.20;;
19291;SDS011;9779;51.756;7.450;2023-09-19T15:16:44;1.53;;;0.80;;
19291;SDS011;9779;51.756;7.450;2023-09-19T15:19:10;1.60;;;0.77;;
19291;SDS011;9779;51.756;7.450;2023-09-19T15:21:36;2.20;;;0.97;;
19291;SDS011;9779;51.756;7.450;2023-09-19T15:24:07;2.00;;;0.90;;
19291;SDS011;9779;51.756;7.450;2023-09-19T15:26:34;7.10;;;1.00;;
19291;SDS011;9779;51.756;7.450;2023-09-19T15:29:04;2.67;;;0.80;;
19291;SDS011;9779;51.756;7.450;2023-09-19T15:31:35;2.30;;;0.90;;
19291;SDS011;9779;51.756;7.450;2023-09-19T15:34:07;2.37;;;0.63;;
19291;SDS011;9779;51.756;7.450;2023-09-19T15:36:32;1.77;;;0.90;;
19291;SDS011;9779;51.756;7.450;2023-09-19T15:41:41;1.23;;;0.70;;
19291;SDS011;9779;51.756;7.450;2023-09-19T15:44:13;2.03;;;1.00;;
19291;SDS011;9779;51.756;7.450;2023-09-19T15:46:43;5.63;;;0.90;;
19291;SDS011;9779;51.756;7.450;2023-09-19T15:49:10;6.10;;;1.00;;
19291;SDS011;9779;51.756;7.450;2023-09-19T15:51:36;1.43;;;0.70;;
19291;SDS011;9779;51.756;7.450;2023-09-19T15:54:06;5.77;;;0.80;;
19291;SDS011;9779;51.756;7.450;2023-09-19T15:56:33;1.73;;;0.70;;
19291;SDS011;9779;51.756;7.450;2023-09-19T15:59:05;4.83;;;1.13;;
19291;SDS011;9779;51.756;7.450;2023-09-19T16:01:30;1.33;;;0.90;;
19291;SDS011;9779;51.756;7.450;2023-09-19T16:03:56;1.90;;;0.80;;
19291;SDS011;9779;51.756;7.450;2023-09-19T16:06:25;6.63;;;0.70;;
19291;SDS011;9779;51.756;7.450;2023-09-19T16:08:53;2.70;;;0.80;;
19291;SDS011;9779;51.756;7.450;2023-09-19T16:11:29;1.33;;;0.80;;
19291;SDS011;9779;51.756;7.450;2023-09-19T16:13:56;4.20;;;1.30;;
19291;SDS011;9779;51.756;7.450;2023-09-19T16:16:23;3.93;;;1.00;;
19291;SDS011;9779;51.756;7.450;2023-09-19T16:18:53;1.90;;;0.97;;
19291;SDS011;9779;51.756;7.450;2023-09-19T16:21:31;1.90;;;0.67;;
19291;SDS011;9779;51.756;7.450;2023-09-19T16:24:00;5.63;;;0.70;;
19291;SDS011;9779;51.756;7.450;2023-09-19T16:26:32;1.80;;;0.87;;